sensor_id;sensor_type;location;lat;lon;timestamp;temperature;humidity
10276;DHT22;5183;51.190;6.820;2022-12-29T05:48:25;12.10;1.00
10276;DHT22;5183;51.190;6.820;2022-12-29T05:50:51;12.10;99.90
10276;DHT22;5183;51.190;6.820;2022-12-29T05:53:18;12.10;99.90
10276;DHT22;5183;51.190;6.820;2022-12-29T05:55:47;12.10;99.90
10276;DHT22;5183;51.190;6.820;2022-12-29T05:58:14;12.10;99.90
10276;DHT22;5183;51.190;6.820;2022-12-29T06:00:41;12.10;99.90
10276;DHT22;5183;51.190;6.820;2022-12-29T06:03:08;12.00;99.90
10276;DHT22;5183;51.190;6.820;2022-12-29T06:05:38;12.00;99.90
10276;DHT22;5183;51.190;6.820;2022-12-29T06:08:05;12.00;99.90
10276;DHT22;5183;51.190;6.820;2022-12-29T06:10:32;11.90;1.00
10276;DHT22;5183;51.190;6.820;2022-12-29T06:12:59;12.00;99.90
10276;DHT22;5183;51.190;6.820;2022-12-29T06:15:26;11.90;1.00
10276;DHT22;5183;51.190;6.820;2022-12-29T06:17:53;11.90;1.00
10276;DHT22;5183;51.190;6.820;2022-12-29T06:20:19;11.90;1.00
10276;DHT22;5183;51.190;6.820;2022-12-29T06:22:47;11.80;1.00
10276;DHT22;5183;51.190;6.820;2022-12-29T06:25:15;11.80;1.00
10276;DHT22;5183;51.190;6.820;2022-12-29T06:27:42;11.80;1.00
10276;DHT22;5183;51.190;6.820;2022-12-29T06:30:10;11.80;1.00
10276;DHT22;5183;51.190;6.820;2022-12-29T06:32:37;11.80;1.00
10276;DHT22;5183;51.190;6.820;2022-12-29T06:35:05;11.80;1.00
10276;DHT22;5183;51.190;6.820;2022-12-29T06:37:32;11.80;1.00
10276;DHT22;5183;51.190;6.820;2022-12-29T06:40:00;11.80;99.90
10276;DHT22;5183;51.190;6.820;2022-12-29T06:42:27;11.80;1.00
10276;DHT22;5183;51.190;6.820;2022-12-29T06:44:54;11.80;99.90
10276;DHT22;5183;51.190;6.820;2022-12-29T06:47:24;11.80;99.90
10276;DHT22;5183;51.190;6.820;2022-12-29T06:49:50;11.80;99.90
10276;DHT22;5183;51.190;6.820;2022-12-29T06:52:17;11.70;99.90
10276;DHT22;5183;51.190;6.820;2022-12-29T06:54:44;11.70;99.90
10276;DHT22;5183;51.190;6.820;2022-12-29T06:57:12;11.70;99.40
10276;DHT22;5183;51.190;6.820;2022-12-29T06:59:39;11.70;38.60
10276;DHT22;5183;51.190;6.820;2022-12-29T07:02:06;11.70;21.90
10276;DHT22;5183;51.190;6.820;2022-12-29T07:04:33;11.70;1.00
10276;DHT22;5183;51.190;6.820;2022-12-29T07:07:00;11.70;1.00
10276;DHT22;5183;51.190;6.820;2022-12-29T07:09:27;11.80;1.00
10276;DHT22;5183;51.190;6.820;2022-12-29T07:11:53;11.70;1.00
10276;DHT22;5183;51.190;6.820;2022-12-29T07:14:22;11.70;1.00
10276;DHT22;5183;51.190;6.820;2022-12-29T07:16:48;11.70;31.10
10276;DHT22;5183;51.190;6.820;2022-12-29T07:19:15;11.70;99.10
10276;DHT22;5183;51.190;6.820;2022-12-29T07:21:42;11.70;1.00
10276;DHT22;5183;51.190;6.820;2022-12-29T07:24:09;11.60;1.00
10276;DHT22;5183;51.190;6.820;2022-12-29T07:26:36;11.60;1.00
10276;DHT22;5183;51.190;6.820;2022-12-29T07:29:03;11.50;1.00
10276;DHT22;5183;51.190;6.820;2022-12-29T07:31:31;11.40;1.00
10276;DHT22;5183;51.190;6.820;2022-12-29T07:33:58;11.40;1.00
10276;DHT22;5183;51.190;6.820;2022-12-29T07:36:25;11.50;99.90
10276;DHT22;5183;51.190;6.820;2022-12-29T07:38:51;11.50;99.90
10276;DHT22;5183;51.190;6.820;2022-12-29T07:41:18;11.50;99.90
10276;DHT22;5183;51.190;6.820;2022-12-29T07:43:46;11.50;99.90
10276;DHT22;5183;51.190;6.820;2022-12-29T07:46:14;11.50;75.30
10276;DHT22;5183;51.190;6.820;2022-12-29T07:48:42;11.60;37.30
10276;DHT22;5183;51.190;6.820;2022-12-29T07:51:09;11.60;1.00
10276;DHT22;5183;51.190;6.820;2022-12-29T07:53:36;11.60;1.00
10276;DHT22;5183;51.190;6.820;2022-12-29T07:56:04;11.60;1.00
10276;DHT22;5183;51.190;6.820;2022-12-29T07:58:31;11.60;99.90
10276;DHT22;5183;51.190;6.820;2022-12-29T08:00:58;11.70;99.90
10276;DHT22;5183;51.190;6.820;2022-12-29T08:03:25;11.70;99.90
10276;DHT22;5183;51.190;6.820;2022-12-29T08:05:53;11.70;99.90
10276;DHT22;5183;51.190;6.820;2022-12-29T08:08:20;11.60;1.00
10276;DHT22;5183;51.190;6.820;2022-12-29T08:10:47;11.70;99.90
10276;DHT22;5183;51.190;6.820;2022-12-29T08:13:14;11.60;1.00
10276;DHT22;5183;51.190;6.820;2022-12-29T08:15:41;11.60;1.00
10276;DHT22;5183;51.190;6.820;2022-12-29T08:18:08;11.60;1.00
10276;DHT22;5183;51.190;6.820;2022-12-29T08:20:35;11.60;1.00
10276;DHT22;5183;51.190;6.820;2022-12-29T08:23:03;11.60;99.90
10276;DHT22;5183;51.190;6.820;2022-12-29T08:25:29;11.60;99.90
10276;DHT22;5183;51.190;6.820;2022-12-29T08:27:56;11.60;99.90
10276;DHT22;5183;51.190;6.820;2022-12-29T08:30:23;11.60;99.90
10276;DHT22;5183;51.190;6.820;2022-12-29T08:32:50;11.60;99.90
10276;DHT22;5183;51.190;6.820;2022-12-29T08:35:17;11.60;99.90
10276;DHT22;5183;51.190;6.820;2022-12-29T08:37:44;11.60;99.90
10276;DHT22;5183;51.190;6.820;2022-12-29T08:40:12;11.60;99.90
10276;DHT22;5183;51.190;6.820;2022-12-29T08:42:39;11.70;99.90
10276;DHT22;5183;51.190;6.820;2022-12-29T08:45:07;11.60;99.90
10276;DHT22;5183;51.190;6.820;2022-12-29T08:47:35;10.90;99.90
10276;DHT22;5183;51.190;6.820;2022-12-29T08:50:02;10.40;1.00
10276;DHT22;5183;51.190;6.820;2022-12-29T08:52:29;10.20;1.00
10276;DHT22;5183;51.190;6.820;2022-12-29T08:54:55;10.10;1.00
10276;DHT22;5183;51.190;6.820;2022-12-29T08:57:24;10.00;99.90
10276;DHT22;5183;51.190;6.820;2022-12-29T08:59:50;10.00;35.60
10276;DHT22;5183;51.190;6.820;2022-12-29T09:02:17;9.90;99.90
10276;DHT22;5183;51.190;6.820;2022-12-29T09:04:44;9.90;1.00
10276;DHT22;5183;51.190;6.820;2022-12-29T09:07:11;10.00;99.90
10276;DHT22;5183;51.190;6.820;2022-12-29T09:09:38;10.00;99.90
10276;DHT22;5183;51.190;6.820;2022-12-29T09:12:05;10.00;99.90
10276;DHT22;5183;51.190;6.820;2022-12-29T09:14:33;10.10;1.00
10276;DHT22;5183;51.190;6.820;2022-12-29T09:17:00;10.20;1.00
10276;DHT22;5183;51.190;6.820;2022-12-29T09:19:45;10.30;99.90
10276;DHT22;5183;51.190;6.820;2022-12-29T09:22:11;10.40;99.90
10276;DHT22;5183;51.190;6.820;2022-12-29T09:24:38;10.50;1.00
10276;DHT22;5183;51.190;6.820;2022-12-29T09:27:05;10.60;99.90
10276;DHT22;5183;51.190;6.820;2022-12-29T09:29:33;10.80;1.00
10276;DHT22;5183;51.190;6.820;2022-12-29T09:32:00;10.90;99.90
10276;DHT22;5183;51.190;6.820;2022-12-29T09:34:27;10.90;99.90
10276;DHT22;5183;51.190;6.820;2022-12-29T09:36:54;11.00;86.00
10276;DHT22;5183;51.190;6.820;2022-12-29T09:39:21;10.90;99.90
10276;DHT22;5183;51.190;6.820;2022-12-29T09:41:52;11.00;99.90
10276;DHT22;5183;51.190;6.820;2022-12-29T09:44:26;11.10;99.90
10276;DHT22;5183;51.190;6.820;2022-12-29T09:46:59;11.20;80.70
10276;DHT22;5183;51.190;6.820;2022-12-29T09:49:39;11.20;1.00
10276;DHT22;5183;51.190;6.820;2022-12-29T09:52:13;11.30;99.90
10276;DHT22;5183;51.190;6.820;2022-12-29T09:54:47;11.30;99.90
10276;DHT22;5183;51.190;6.820;2022-12-29T09:57:19;11.30;99.90
10276;DHT22;5183;51.190;6.820;2022-12-29T09:59:49;11.30;1.00
10276;DHT22;5183;51.190;6.820;2022-12-29T10:02:29;11.40;1.00
10276;DHT22;5183;51.190;6.820;2022-12-29T10:04:58;11.40;99.90
10276;DHT22;5183;51.190;6.820;2022-12-29T10:07:34;11.40;99.90
10276;DHT22;5183;51.190;6.820;2022-12-29T10:10:20;11.40;1.00
10276;DHT22;5183;51.190;6.820;2022-12-29T10:12:58;11.50;1.00
10276;DHT22;5183;51.190;6.820;2022-12-29T10:15:39;11.40;99.90
10276;DHT22;5183;51.190;6.820;2022-12-29T10:18:29;11.50;99.90
10276;DHT22;5183;51.190;6.820;2022-12-29T10:21:04;11.50;99.90
10276;DHT22;5183;51.190;6.820;2022-12-29T10:23:35;11.60;99.90
10276;DHT22;5183;51.190;6.820;2022-12-29T10:26:10;11.60;99.90
10276;DHT22;5183;51.190;6.820;2022-12-29T10:28:42;11.60;99.90
10276;DHT22;5183;51.190;6.820;2022-12-29T10:31:13;11.60;99.90
10276;DHT22;5183;51.190;6.820;2022-12-29T10:33:49;11.70;99.90
10276;DHT22;5183;51.190;6.820;2022-12-29T10:36:27;11.70;99.90
10276;DHT22;5183;51.190;6.820;2022-12-29T10:39:03;11.80;99.90
10276;DHT22;5183;51.190;6.820;2022-12-29T10:41:53;11.80;99.90
10276;DHT22;5183;51.190;6.820;2022-12-29T10:44:22;11.80;99.90
10276;DHT22;5183;51.190;6.820;2022-12-29T10:46:55;11.70;99.90
10276;DHT22;5183;51.190;6.820;2022-12-29T10:49:25;11.80;99.90
10276;DHT22;5183;51.190;6.820;2022-12-29T10:51:56;11.80;99.90
10276;DHT22;5183;51.190;6.820;2022-12-29T10:54:27;11.80;99.90
10276;DHT22;5183;51.190;6.820;2022-12-29T10:57:01;11.80;99.90
10276;DHT22;5183;51.190;6.820;2022-12-29T10:59:31;11.80;90.70
10276;DHT22;5183;51.190;6.820;2022-12-29T11:02:13;11.90;48.60
10276;DHT22;5183;51.190;6.820;2022-12-29T11:04:51;11.90;23.40
10276;DHT22;5183;51.190;6.820;2022-12-29T11:07:21;12.00;65.20
10276;DHT22;5183;51.190;6.820;2022-12-29T11:09:48;12.00;24.30
10276;DHT22;5183;51.190;6.820;2022-12-29T11:12:23;12.10;16.80
10276;DHT22;5183;51.190;6.820;2022-12-29T11:15:06;12.00;1.00
10276;DHT22;5183;51.190;6.820;2022-12-29T11:17:44;12.00;1.00
10276;DHT22;5183;51.190;6.820;2022-12-29T11:20:29;12.00;1.00
10276;DHT22;5183;51.190;6.820;2022-12-29T11:22:56;12.10;1.00
10276;DHT22;5183;51.190;6.820;2022-12-29T11:25:23;12.10;1.00
10276;DHT22;5183;51.190;6.820;2022-12-29T11:27:57;12.10;1.00
10276;DHT22;5183;51.190;6.820;2022-12-29T11:30:26;12.10;1.00
10276;DHT22;5183;51.190;6.820;2022-12-29T11:32:54;12.00;1.00
10276;DHT22;5183;51.190;6.820;2022-12-29T11:35:33;12.00;1.00
10276;DHT22;5183;51.190;6.820;2022-12-29T11:38:02;12.00;1.00
10276;DHT22;5183;51.190;6.820;2022-12-29T11:40:29;12.00;1.00
10276;DHT22;5183;51.190;6.820;2022-12-29T11:43:00;12.00;1.00
10276;DHT22;5183;51.190;6.820;2022-12-29T11:45:30;12.00;63.80
10276;DHT22;5183;51.190;6.820;2022-12-29T11:48:00;12.00;99.90
10276;DHT22;5183;51.190;6.820;2022-12-29T11:50:30;12.00;13.50
10276;DHT22;5183;51.190;6.820;2022-12-29T11:52:59;12.00;85.70
10276;DHT22;5183;51.190;6.820;2022-12-29T11:55:27;12.00;87.80
10276;DHT22;5183;51.190;6.820;2022-12-29T11:57:59;12.00;49.40
10276;DHT22;5183;51.190;6.820;2022-12-29T12:00:28;12.00;1.00
10276;DHT22;5183;51.190;6.820;2022-12-29T12:02:59;11.90;1.00
10276;DHT22;5183;51.190;6.820;2022-12-29T12:05:35;11.90;1.00
10276;DHT22;5183;51.190;6.820;2022-12-29T12:08:09;11.90;1.00
10276;DHT22;5183;51.190;6.820;2022-12-29T12:10:39;11.90;1.00
10276;DHT22;5183;51.190;6.820;2022-12-29T12:13:18;11.90;1.00
10276;DHT22;5183;51.190;6.820;2022-12-29T12:15:51;11.90;1.00
10276;DHT22;5183;51.190;6.820;2022-12-29T12:18:28;11.90;1.00
10276;DHT22;5183;51.190;6.820;2022-12-29T12:21:05;11.80;1.00
10276;DHT22;5183;51.190;6.820;2022-12-29T12:23:41;11.80;1.00
10276;DHT22;5183;51.190;6.820;2022-12-29T12:26:12;11.80;1.00
10276;DHT22;5183;51.190;6.820;2022-12-29T12:28:48;11.80;1.00
10276;DHT22;5183;51.190;6.820;2022-12-29T12:31:24;11.70;1.00
10276;DHT22;5183;51.190;6.820;2022-12-29T12:33:58;11.70;1.00
10276;DHT22;5183;51.190;6.820;2022-12-29T12:36:59;11.70;1.00
10276;DHT22;5183;51.190;6.820;2022-12-29T12:39:36;11.60;54.20
10276;DHT22;5183;51.190;6.820;2022-12-29T12:42:18;11.70;2.10
10276;DHT22;5183;51.190;6.820;2022-12-29T12:44:55;11.60;24.90
10276;DHT22;5183;51.190;6.820;2022-12-29T12:47:36;11.60;1.00
10276;DHT22;5183;51.190;6.820;2022-12-29T12:53:16;11.60;49.80
10276;DHT22;5183;51.190;6.820;2022-12-29T12:56:02;11.70;86.10
10276;DHT22;5183;51.190;6.820;2022-12-29T12:58:41;11.60;1.00
10276;DHT22;5183;51.190;6.820;2022-12-29T13:01:27;11.60;1.00
10276;DHT22;5183;51.190;6.820;2022-12-29T13:04:21;11.60;1.00
10276;DHT22;5183;51.190;6.820;2022-12-29T13:07:00;11.60;1.00
10276;DHT22;5183;51.190;6.820;2022-12-29T13:09:43;11.70;1.00
10276;DHT22;5183;51.190;6.820;2022-12-29T13:12:19;11.60;1.00
10276;DHT22;5183;51.190;6.820;2022-12-29T13:14:59;11.60;1.00
10276;DHT22;5183;51.190;6.820;2022-12-29T13:17:38;11.60;1.00
10276;DHT22;5183;51.190;6.820;2022-12-29T13:20:19;11.60;1.00
10276;DHT22;5183;51.190;6.820;2022-12-29T13:22:53;11.60;1.00
10276;DHT22;5183;51.190;6.820;2022-12-29T13:25:27;11.60;1.00
10276;DHT22;5183;51.190;6.820;2022-12-29T13:28:00;11.60;1.00
10276;DHT22;5183;51.190;6.820;2022-12-29T13:30:33;11.60;1.00
10276;DHT22;5183;51.190;6.820;2022-12-29T13:33:07;11.60;1.00
10276;DHT22;5183;51.190;6.820;2022-12-29T13:35:53;11.60;1.00
10276;DHT22;5183;51.190;6.820;2022-12-29T13:38:24;11.60;1.00
10276;DHT22;5183;51.190;6.820;2022-12-29T13:40:56;11.70;1.00
10276;DHT22;5183;51.190;6.820;2022-12-29T13:43:23;11.80;1.00
10276;DHT22;5183;51.190;6.820;2022-12-29T13:45:57;11.90;1.00
10276;DHT22;5183;51.190;6.820;2022-12-29T13:48:33;12.00;1.00
10276;DHT22;5183;51.190;6.820;2022-12-29T13:51:03;11.90;1.00
10276;DHT22;5183;51.190;6.820;2022-12-29T13:53:36;11.80;1.00
10276;DHT22;5183;51.190;6.820;2022-12-29T13:56:09;11.70;1.00
10276;DHT22;5183;51.190;6.820;2022-12-29T13:58:43;11.60;1.00
10276;DHT22;5183;51.190;6.820;2022-12-29T14:01:15;11.70;1.00
10276;DHT22;5183;51.190;6.820;2022-12-29T14:03:49;11.70;1.00
10276;DHT22;5183;51.190;6.820;2022-12-29T14:06:22;11.60;1.00
10276;DHT22;5183;51.190;6.820;2022-12-29T14:08:50;11.70;1.00
10276;DHT22;5183;51.190;6.820;2022-12-29T14:11:21;11.70;1.00
10276;DHT22;5183;51.190;6.820;2022-12-29T14:13:50;11.60;1.00
10276;DHT22;5183;51.190;6.820;2022-12-29T14:16:30;11.60;1.00
10276;DHT22;5183;51.190;6.820;2022-12-29T14:19:08;11.60;1.00
10276;DHT22;5183;51.190;6.820;2022-12-29T14:21:37;11.60;1.00
10276;DHT22;5183;51.190;6.820;2022-12-29T14:24:26;11.40;1.00
10276;DHT22;5183;51.190;6.820;2022-12-29T14:26:53;11.50;1.00
10276;DHT22;5183;51.190;6.820;2022-12-29T14:29:44;11.40;1.00
10276;DHT22;5183;51.190;6.820;2022-12-29T14:32:36;11.40;1.00
10276;DHT22;5183;51.190;6.820;2022-12-29T14:35:36;11.40;1.00
10276;DHT22;5183;51.190;6.820;2022-12-29T14:38:27;11.40;1.00
10276;DHT22;5183;51.190;6.820;2022-12-29T14:41:16;11.30;1.00
10276;DHT22;5183;51.190;6.820;2022-12-29T14:43:53;11.30;1.00
10276;DHT22;5183;51.190;6.820;2022-12-29T14:46:21;11.30;1.00
10276;DHT22;5183;51.190;6.820;2022-12-29T14:48:55;11.20;1.00
10276;DHT22;5183;51.190;6.820;2022-12-29T14:51:36;11.20;1.00
10276;DHT22;5183;51.190;6.820;2022-12-29T14:54:34;11.20;1.00
10276;DHT22;5183;51.190;6.820;2022-12-29T14:57:13;11.10;1.00
10276;DHT22;5183;51.190;6.820;2022-12-29T14:59:40;11.10;1.00
10276;DHT22;5183;51.190;6.820;2022-12-29T15:02:15;11.10;1.00
10276;DHT22;5183;51.190;6.820;2022-12-29T15:04:42;11.40;1.00
10276;DHT22;5183;51.190;6.820;2022-12-29T15:07:12;11.00;1.00
10276;DHT22;5183;51.190;6.820;2022-12-29T15:09:43;11.10;1.00
10276;DHT22;5183;51.190;6.820;2022-12-29T15:12:28;11.10;1.00
10276;DHT22;5183;51.190;6.820;2022-12-29T15:14:58;11.00;1.00
10276;DHT22;5183;51.190;6.820;2022-12-29T15:17:27;11.00;1.00
10276;DHT22;5183;51.190;6.820;2022-12-29T15:19:56;11.00;1.00
10276;DHT22;5183;51.190;6.820;2022-12-29T15:22:25;10.90;1.00
10276;DHT22;5183;51.190;6.820;2022-12-29T15:24:53;10.90;1.00
10276;DHT22;5183;51.190;6.820;2022-12-29T15:27:22;10.90;1.00
10276;DHT22;5183;51.190;6.820;2022-12-29T15:29:56;10.90;1.00
10276;DHT22;5183;51.190;6.820;2022-12-29T15:32:24;10.80;9.40
10276;DHT22;5183;51.190;6.820;2022-12-29T15:34:53;10.80;1.00
10276;DHT22;5183;51.190;6.820;2022-12-29T15:37:24;10.70;1.70
10276;DHT22;5183;51.190;6.820;2022-12-29T15:39:53;10.80;6.00
10276;DHT22;5183;51.190;6.820;2022-12-29T15:42:46;10.80;6.40
10276;DHT22;5183;51.190;6.820;2022-12-29T15:45:15;10.80;35.30
10276;DHT22;5183;51.190;6.820;2022-12-29T15:47:44;10.70;23.10
10276;DHT22;5183;51.190;6.820;2022-12-29T15:50:19;10.60;67.30
10276;DHT22;5183;51.190;6.820;2022-12-29T15:52:48;10.60;51.20
10276;DHT22;5183;51.190;6.820;2022-12-29T15:55:20;10.50;45.20
10276;DHT22;5183;51.190;6.820;2022-12-29T15:57:48;10.50;99.90
10276;DHT22;5183;51.190;6.820;2022-12-29T16:00:22;10.50;98.30
10276;DHT22;5183;51.190;6.820;2022-12-29T16:02:51;10.50;99.80
10276;DHT22;5183;51.190;6.820;2022-12-29T16:05:19;10.50;35.40
10276;DHT22;5183;51.190;6.820;2022-12-29T16:07:54;10.50;20.50
10276;DHT22;5183;51.190;6.820;2022-12-29T16:10:32;10.50;3.50
10276;DHT22;5183;51.190;6.820;2022-12-29T16:13:04;10.50;1.00
10276;DHT22;5183;51.190;6.820;2022-12-29T16:15:32;10.60;1.00
10276;DHT22;5183;51.190;6.820;2022-12-29T16:17:59;10.60;1.00
10276;DHT22;5183;51.190;6.820;2022-12-29T16:20:35;10.50;10.10
10276;DHT22;5183;51.190;6.820;2022-12-29T16:23:05;10.50;6.00
10276;DHT22;5183;51.190;6.820;2022-12-29T16:25:37;10.50;1.00
10276;DHT22;5183;51.190;6.820;2022-12-29T16:28:16;10.40;1.00
10276;DHT22;5183;51.190;6.820;2022-12-29T16:30:43;10.40;1.00
10276;DHT22;5183;51.190;6.820;2022-12-29T16:33:29;10.30;43.20
10276;DHT22;5183;51.190;6.820;2022-12-29T16:35:59;10.20;99.90
10276;DHT22;5183;51.190;6.820;2022-12-29T16:38:30;10.10;99.90
10276;DHT22;5183;51.190;6.820;2022-12-29T16:41:00;10.10;94.20
10276;DHT22;5183;51.190;6.820;2022-12-29T16:43:29;10.20;99.90
10276;DHT22;5183;51.190;6.820;2022-12-29T16:46:18;10.20;99.90
10276;DHT22;5183;51.190;6.820;2022-12-29T16:48:49;10.20;97.60
10276;DHT22;5183;51.190;6.820;2022-12-29T16:51:20;10.20;99.90
10276;DHT22;5183;51.190;6.820;2022-12-29T16:53:51;10.20;96.50
10276;DHT22;5183;51.190;6.820;2022-12-29T16:56:21;10.20;99.90
10276;DHT22;5183;51.190;6.820;2022-12-29T16:58:51;10.20;99.90
10276;DHT22;5183;51.190;6.820;2022-12-29T17:01:20;10.20;99.90
10276;DHT22;5183;51.190;6.820;2022-12-29T17:03:49;10.20;99.90
10276;DHT22;5183;51.190;6.820;2022-12-29T17:06:19;10.20;99.90
10276;DHT22;5183;51.190;6.820;2022-12-29T17:08:47;10.20;99.90
10276;DHT22;5183;51.190;6.820;2022-12-29T17:11:21;10.20;99.90
10276;DHT22;5183;51.190;6.820;2022-12-29T17:14:21;10.20;99.90
10276;DHT22;5183;51.190;6.820;2022-12-29T17:16:49;10.20;1.00
10276;DHT22;5183;51.190;6.820;2022-12-29T17:19:17;10.20;99.90
10276;DHT22;5183;51.190;6.820;2022-12-29T17:21:44;10.10;1.00
10276;DHT22;5183;51.190;6.820;2022-12-29T17:24:15;10.20;1.00
10276;DHT22;5183;51.190;6.820;2022-12-29T17:26:46;10.10;99.90
10276;DHT22;5183;51.190;6.820;2022-12-29T17:29:20;10.10;99.90
10276;DHT22;5183;51.190;6.820;2022-12-29T17:31:47;10.10;1.00
10276;DHT22;5183;51.190;6.820;2022-12-29T17:34:14;10.10;1.00
10276;DHT22;5183;51.190;6.820;2022-12-29T17:36:41;10.00;1.00
10276;DHT22;5183;51.190;6.820;2022-12-29T17:39:08;10.00;1.00
10276;DHT22;5183;51.190;6.820;2022-12-29T17:41:36;9.90;99.90
10276;DHT22;5183;51.190;6.820;2022-12-29T17:44:05;9.90;1.00
10276;DHT22;5183;51.190;6.820;2022-12-29T17:46:32;9.80;1.00
10276;DHT22;5183;51.190;6.820;2022-12-29T17:48:59;9.70;99.90
10276;DHT22;5183;51.190;6.820;2022-12-29T17:51:26;9.60;99.90
10276;DHT22;5183;51.190;6.820;2022-12-29T17:53:53;9.50;99.90
10276;DHT22;5183;51.190;6.820;2022-12-29T17:56:21;9.50;1.00
10276;DHT22;5183;51.190;6.820;2022-12-29T17:58:48;9.40;1.00
10276;DHT22;5183;51.190;6.820;2022-12-29T18:01:17;9.30;99.90
10276;DHT22;5183;51.190;6.820;2022-12-29T18:03:46;9.30;1.00
10276;DHT22;5183;51.190;6.820;2022-12-29T18:06:13;9.20;99.90
10276;DHT22;5183;51.190;6.820;2022-12-29T18:08:40;9.20;1.00
10276;DHT22;5183;51.190;6.820;2022-12-29T18:11:20;9.20;1.00
10276;DHT22;5183;51.190;6.820;2022-12-29T18:13:47;9.10;97.20
10276;DHT22;5183;51.190;6.820;2022-12-29T18:16:14;9.00;20.30
10276;DHT22;5183;51.190;6.820;2022-12-29T18:18:42;9.00;99.90
10276;DHT22;5183;51.190;6.820;2022-12-29T18:21:15;8.90;1.00
10276;DHT22;5183;51.190;6.820;2022-12-29T18:23:43;8.90;1.00
10276;DHT22;5183;51.190;6.820;2022-12-29T18:26:13;8.80;99.90
10276;DHT22;5183;51.190;6.820;2022-12-29T18:28:41;8.70;99.90
10276;DHT22;5183;51.190;6.820;2022-12-29T18:31:16;8.60;1.00
10276;DHT22;5183;51.190;6.820;2022-12-29T18:33:45;8.60;99.90
10276;DHT22;5183;51.190;6.820;2022-12-29T18:36:13;8.50;99.90
10276;DHT22;5183;51.190;6.820;2022-12-29T18:38:40;8.50;1.00
10276;DHT22;5183;51.190;6.820;2022-12-29T18:41:13;8.40;1.00
10276;DHT22;5183;51.190;6.820;2022-12-29T18:43:41;8.40;99.90
10276;DHT22;5183;51.190;6.820;2022-12-29T18:46:08;8.30;1.00
10276;DHT22;5183;51.190;6.820;2022-12-29T18:48:35;8.30;1.00
10276;DHT22;5183;51.190;6.820;2022-12-29T18:51:04;8.30;1.00
10276;DHT22;5183;51.190;6.820;2022-12-29T18:53:31;8.30;99.90
10276;DHT22;5183;51.190;6.820;2022-12-29T18:56:01;8.30;1.00
10276;DHT22;5183;51.190;6.820;2022-12-29T18:58:28;8.30;1.00
10276;DHT22;5183;51.190;6.820;2022-12-29T19:00:55;8.30;1.00
10276;DHT22;5183;51.190;6.820;2022-12-29T19:03:22;8.30;99.90
10276;DHT22;5183;51.190;6.820;2022-12-29T19:05:49;8.40;99.90
10276;DHT22;5183;51.190;6.820;2022-12-29T19:08:17;8.30;1.00
10276;DHT22;5183;51.190;6.820;2022-12-29T19:10:44;8.30;60.30
10276;DHT22;5183;51.190;6.820;2022-12-29T19:13:15;8.40;1.00
10276;DHT22;5183;51.190;6.820;2022-12-29T19:15:43;8.40;99.90
10276;DHT22;5183;51.190;6.820;2022-12-29T19:18:16;8.30;99.90
10276;DHT22;5183;51.190;6.820;2022-12-29T19:20:43;8.30;1.00
10276;DHT22;5183;51.190;6.820;2022-12-29T19:23:13;8.30;99.90
10276;DHT22;5183;51.190;6.820;2022-12-29T19:25:41;8.30;1.00
10276;DHT22;5183;51.190;6.820;2022-12-29T19:28:15;8.30;1.00
10276;DHT22;5183;51.190;6.820;2022-12-29T19:30:43;8.20;99.90
10276;DHT22;5183;51.190;6.820;2022-12-29T19:33:10;8.10;99.90
10276;DHT22;5183;51.190;6.820;2022-12-29T19:35:37;8.00;99.90
10276;DHT22;5183;51.190;6.820;2022-12-29T19:38:04;8.00;1.00
10276;DHT22;5183;51.190;6.820;2022-12-29T19:40:31;8.00;1.00
10276;DHT22;5183;51.190;6.820;2022-12-29T19:42:59;7.90;99.90
10276;DHT22;5183;51.190;6.820;2022-12-29T19:45:26;7.90;1.00
10276;DHT22;5183;51.190;6.820;2022-12-29T19:47:53;7.80;1.00
10276;DHT22;5183;51.190;6.820;2022-12-29T19:50:20;7.80;1.00
10276;DHT22;5183;51.190;6.820;2022-12-29T19:52:47;7.80;1.00
10276;DHT22;5183;51.190;6.820;2022-12-29T19:55:14;7.80;1.00
10276;DHT22;5183;51.190;6.820;2022-12-29T19:57:42;7.70;11.30
10276;DHT22;5183;51.190;6.820;2022-12-29T20:00:11;7.70;51.90
10276;DHT22;5183;51.190;6.820;2022-12-29T20:02:40;7.80;1.00
10276;DHT22;5183;51.190;6.820;2022-12-29T20:05:07;7.80;1.00
10276;DHT22;5183;51.190;6.820;2022-12-29T20:07:34;7.70;1.00
10276;DHT22;5183;51.190;6.820;2022-12-29T20:10:01;7.70;1.00
10276;DHT22;5183;51.190;6.820;2022-12-29T20:12:28;7.80;99.90
10276;DHT22;5183;51.190;6.820;2022-12-29T20:14:58;7.70;1.00
10276;DHT22;5183;51.190;6.820;2022-12-29T20:17:26;7.80;99.90
10276;DHT22;5183;51.190;6.820;2022-12-29T20:19:53;7.80;99.90
10276;DHT22;5183;51.190;6.820;2022-12-29T20:22:20;7.80;1.00
10276;DHT22;5183;51.190;6.820;2022-12-29T20:24:47;7.70;1.00
10276;DHT22;5183;51.190;6.820;2022-12-29T20:27:13;7.70;90.50
10276;DHT22;5183;51.190;6.820;2022-12-29T20:29:41;7.70;1.00
10276;DHT22;5183;51.190;6.820;2022-12-29T20:32:14;7.70;1.00
10276;DHT22;5183;51.190;6.820;2022-12-29T20:34:43;7.70;1.00
10276;DHT22;5183;51.190;6.820;2022-12-29T20:37:10;7.80;1.00
10276;DHT22;5183;51.190;6.820;2022-12-29T20:39:38;7.80;99.90
10276;DHT22;5183;51.190;6.820;2022-12-29T20:42:05;7.80;1.00
10276;DHT22;5183;51.190;6.820;2022-12-29T20:44:33;7.80;1.00
10276;DHT22;5183;51.190;6.820;2022-12-29T20:47:00;7.80;1.00
10276;DHT22;5183;51.190;6.820;2022-12-29T20:49:27;7.80;14.80
10276;DHT22;5183;51.190;6.820;2022-12-29T20:51:56;7.80;1.00
10276;DHT22;5183;51.190;6.820;2022-12-29T20:54:23;7.90;1.00
10276;DHT22;5183;51.190;6.820;2022-12-29T20:56:50;7.90;1.00
10276;DHT22;5183;51.190;6.820;2022-12-29T20:59:17;7.90;1.00
10276;DHT22;5183;51.190;6.820;2022-12-29T21:01:44;7.80;1.00
10276;DHT22;5183;51.190;6.820;2022-12-29T21:04:11;7.80;1.00
10276;DHT22;5183;51.190;6.820;2022-12-29T21:06:38;7.90;1.00
10276;DHT22;5183;51.190;6.820;2022-12-29T21:09:06;7.80;1.00
10276;DHT22;5183;51.190;6.820;2022-12-29T21:11:33;7.90;1.00
10276;DHT22;5183;51.190;6.820;2022-12-29T21:14:00;7.90;1.00
10276;DHT22;5183;51.190;6.820;2022-12-29T21:16:27;7.90;1.00
10276;DHT22;5183;51.190;6.820;2022-12-29T21:18:53;7.80;99.90
10276;DHT22;5183;51.190;6.820;2022-12-29T21:21:22;7.80;1.00
10276;DHT22;5183;51.190;6.820;2022-12-29T21:23:50;7.80;1.00
10276;DHT22;5183;51.190;6.820;2022-12-29T21:26:21;7.80;1.00
10276;DHT22;5183;51.190;6.820;2022-12-29T21:28:48;7.70;1.00
10276;DHT22;5183;51.190;6.820;2022-12-29T21:31:24;7.70;1.00
10276;DHT22;5183;51.190;6.820;2022-12-29T21:33:51;7.70;1.00
10276;DHT22;5183;51.190;6.820;2022-12-29T21:36:19;7.70;1.00
10276;DHT22;5183;51.190;6.820;2022-12-29T21:38:46;7.70;99.90
10276;DHT22;5183;51.190;6.820;2022-12-29T21:41:14;7.70;1.00
10276;DHT22;5183;51.190;6.820;2022-12-29T21:43:43;7.60;99.90
10276;DHT22;5183;51.190;6.820;2022-12-29T21:46:32;7.70;99.90
10276;DHT22;5183;51.190;6.820;2022-12-29T21:48:58;7.70;99.90
10276;DHT22;5183;51.190;6.820;2022-12-29T21:51:25;7.70;95.70
10276;DHT22;5183;51.190;6.820;2022-12-29T21:54:09;7.70;1.00
10276;DHT22;5183;51.190;6.820;2022-12-29T21:56:53;7.80;1.00
10276;DHT22;5183;51.190;6.820;2022-12-29T21:59:21;7.70;1.00
